createdAt,value
2018-03-10T00:00:25.963Z,0.00
2018-03-10T00:01:26.202Z,0.00
2018-03-10T00:02:26.449Z,0.00
2018-03-10T00:03:26.698Z,0.00
2018-03-10T00:04:26.956Z,0.00
2018-03-10T00:05:27.200Z,0.00
2018-03-10T00:06:27.441Z,0.00
2018-03-10T00:07:27.691Z,0.00
2018-03-10T00:08:27.940Z,0.00
2018-03-10T00:09:28.190Z,0.00
2018-03-10T00:10:28.452Z,0.00
2018-03-10T00:11:28.686Z,0.00
2018-03-10T00:12:28.922Z,0.00
2018-03-10T00:13:29.165Z,0.00
2018-03-10T00:14:29.417Z,0.00
2018-03-10T00:15:29.639Z,0.00
2018-03-10T00:16:29.896Z,0.00
2018-03-10T00:17:30.135Z,0.00
2018-03-10T00:18:30.388Z,0.00
2018-03-10T00:19:30.644Z,0.00
2018-03-10T00:20:30.884Z,0.00
2018-03-10T00:21:31.137Z,0.00
2018-03-10T00:22:31.380Z,0.00
2018-03-10T00:23:31.629Z,0.00
2018-03-10T00:24:31.873Z,0.00
2018-03-10T00:25:32.115Z,0.00
2018-03-10T00:26:32.347Z,0.00
2018-03-10T00:27:32.599Z,0.00
2018-03-10T00:28:32.839Z,0.00
2018-03-10T00:31:06.201Z,0.00
2018-03-10T00:32:06.444Z,0.00
2018-03-10T00:33:06.690Z,0.00
2018-03-10T00:34:06.939Z,0.00
2018-03-10T00:35:07.193Z,0.00
2018-03-10T00:36:07.447Z,0.00
2018-03-10T00:37:07.696Z,0.00
2018-03-10T00:38:07.947Z,0.00
2018-03-10T00:39:08.196Z,0.00
2018-03-10T00:40:08.446Z,0.00
2018-03-10T00:41:08.697Z,0.00
2018-03-10T00:42:08.952Z,0.00
2018-03-10T00:43:09.193Z,0.00
2018-03-10T00:44:09.433Z,0.00
2018-03-10T00:45:09.679Z,0.00
2018-03-10T00:46:09.932Z,0.00
2018-03-10T00:47:10.185Z,0.00
2018-03-10T00:48:10.440Z,0.00
2018-03-10T00:49:10.679Z,0.00
2018-03-10T00:50:10.929Z,0.00
2018-03-10T00:51:11.191Z,0.00
2018-03-10T00:52:11.424Z,0.00
2018-03-10T00:53:11.683Z,0.00
2018-03-10T00:54:11.931Z,0.00
2018-03-10T00:55:12.157Z,0.00
2018-03-10T00:56:12.408Z,0.00
2018-03-10T00:57:12.650Z,0.00
2018-03-10T00:58:12.893Z,0.00
2018-03-10T00:59:13.141Z,0.00
2018-03-10T01:00:13.365Z,0.00
2018-03-10T01:01:13.613Z,0.00
2018-03-10T01:02:13.861Z,0.00
2018-03-10T01:03:14.096Z,0.00
2018-03-10T01:04:14.329Z,0.00
2018-03-10T01:05:14.565Z,0.00
2018-03-10T01:06:14.816Z,0.00
2018-03-10T01:07:15.058Z,0.00
2018-03-10T01:08:15.310Z,0.00
2018-03-10T01:09:15.548Z,0.00
2018-03-10T01:10:15.792Z,0.00
2018-03-10T01:11:16.037Z,0.00
2018-03-10T01:12:16.267Z,0.00
2018-03-10T01:13:16.524Z,0.00
2018-03-10T01:14:16.777Z,0.00
2018-03-10T01:15:17.020Z,0.00
2018-03-10T01:16:17.268Z,0.00
2018-03-10T01:17:17.517Z,0.00
2018-03-10T01:18:17.773Z,0.00
2018-03-10T01:19:17.998Z,0.00
2018-03-10T01:20:18.251Z,0.00
2018-03-10T01:21:18.491Z,0.00
2018-03-10T01:22:18.746Z,0.00
2018-03-10T01:23:18.966Z,0.00
2018-03-10T01:24:19.221Z,0.00
2018-03-10T01:25:19.476Z,0.00
2018-03-10T01:26:19.699Z,0.00
2018-03-10T01:27:19.927Z,0.00
2018-03-10T01:28:20.203Z,0.00
2018-03-10T01:29:20.409Z,0.00
2018-03-10T01:30:20.645Z,0.00
2018-03-10T01:31:20.907Z,0.00
2018-03-10T01:32:21.142Z,0.00
2018-03-10T01:33:21.372Z,0.00
2018-03-10T01:34:21.640Z,0.00
2018-03-10T01:35:21.883Z,0.00
2018-03-10T01:36:22.119Z,0.00
2018-03-10T01:37:22.325Z,0.00
2018-03-10T01:38:22.586Z,0.00
2018-03-10T01:39:22.819Z,0.00
2018-03-10T01:40:23.074Z,0.00
2018-03-10T01:41:23.320Z,4.00
2018-03-10T01:42:23.578Z,0.00
2018-03-10T01:43:23.828Z,0.00
2018-03-10T01:44:24.068Z,0.00
2018-03-10T01:45:24.312Z,0.00
2018-03-10T01:46:24.554Z,0.00
2018-03-10T01:47:24.812Z,0.00
2018-03-10T01:48:25.040Z,0.00
2018-03-10T01:49:25.297Z,0.00
2018-03-10T01:50:25.536Z,0.00
2018-03-10T01:51:25.784Z,0.00
2018-03-10T01:52:26.022Z,0.00
2018-03-10T01:53:26.253Z,0.00
2018-03-10T01:54:26.502Z,0.00
2018-03-10T01:55:26.750Z,0.00
2018-03-10T01:56:27.032Z,0.00
2018-03-10T01:57:27.295Z,0.00
2018-03-10T01:58:27.524Z,0.00
2018-03-10T01:59:27.772Z,0.00
2018-03-10T02:00:28.022Z,0.00
2018-03-10T02:01:28.272Z,0.00
2018-03-10T02:02:28.500Z,0.00
2018-03-10T02:03:28.740Z,0.00
2018-03-10T02:04:28.977Z,0.00
2018-03-10T02:05:29.232Z,0.00
2018-03-10T02:06:29.473Z,0.00
2018-03-10T02:07:29.710Z,0.00
2018-03-10T02:08:29.961Z,0.00
2018-03-10T02:09:30.206Z,0.00
2018-03-10T02:10:30.440Z,0.00
2018-03-10T02:11:30.697Z,0.00
2018-03-10T02:12:30.934Z,0.00
2018-03-10T02:13:31.165Z,0.00
2018-03-10T02:14:31.415Z,0.00
2018-03-10T02:15:31.673Z,0.00
2018-03-10T02:16:31.905Z,0.00
2018-03-10T02:17:32.159Z,0.00
2018-03-10T02:18:32.425Z,0.00
2018-03-10T02:19:32.657Z,0.00
2018-03-10T02:20:32.901Z,0.00
2018-03-10T02:21:33.140Z,0.00
2018-03-10T02:22:33.383Z,0.00
2018-03-10T02:23:33.621Z,0.00
2018-03-10T02:24:33.876Z,0.00
2018-03-10T02:25:34.120Z,0.00
2018-03-10T02:26:34.365Z,0.00
2018-03-10T02:27:34.632Z,0.00
2018-03-10T02:28:34.864Z,0.00
2018-03-10T02:29:35.097Z,0.00
2018-03-10T02:30:35.343Z,0.00
2018-03-10T02:31:35.589Z,0.00
2018-03-10T02:32:35.830Z,0.00
2018-03-10T02:33:36.079Z,0.00
2018-03-10T02:34:36.314Z,0.00
2018-03-10T02:35:36.552Z,0.00
2018-03-10T02:36:36.840Z,0.00
2018-03-10T02:37:37.063Z,0.00
2018-03-10T02:38:37.304Z,0.00
2018-03-10T02:39:37.543Z,0.00
2018-03-10T02:40:37.785Z,0.00
2018-03-10T02:41:38.026Z,0.00
2018-03-10T02:42:38.264Z,0.00
2018-03-10T02:43:38.513Z,0.00
2018-03-10T02:44:38.760Z,0.00
2018-03-10T02:45:38.999Z,0.00
2018-03-10T02:46:39.247Z,0.00
2018-03-10T02:47:39.486Z,0.00
2018-03-10T02:48:39.727Z,0.00
2018-03-10T02:49:39.971Z,0.00
2018-03-10T02:50:40.219Z,0.00
2018-03-10T02:51:40.452Z,0.00
2018-03-10T02:52:40.690Z,0.00
2018-03-10T02:53:40.931Z,0.00
2018-03-10T02:54:41.181Z,0.00
2018-03-10T02:55:41.429Z,0.00
2018-03-10T02:56:41.662Z,0.00
2018-03-10T02:57:41.913Z,0.00
2018-03-10T02:58:42.148Z,0.00
2018-03-10T02:59:42.382Z,0.00
2018-03-10T03:00:42.632Z,0.00
2018-03-10T03:01:42.867Z,0.00
2018-03-10T03:02:43.121Z,0.00
2018-03-10T03:03:43.360Z,0.00
2018-03-10T03:04:43.590Z,0.00
2018-03-10T03:05:43.840Z,0.00
2018-03-10T03:06:44.091Z,0.00
2018-03-10T03:07:44.343Z,0.00
2018-03-10T03:08:44.577Z,0.00
2018-03-10T03:09:44.816Z,0.00
2018-03-10T03:10:45.072Z,0.00
2018-03-10T03:11:45.287Z,0.00
2018-03-10T03:12:45.534Z,0.00
2018-03-10T03:13:45.778Z,0.00
2018-03-10T03:14:46.033Z,0.00
2018-03-10T03:15:46.296Z,0.00
2018-03-10T03:16:46.509Z,0.00
2018-03-10T03:17:46.763Z,0.00
2018-03-10T03:18:47.009Z,0.00
2018-03-10T03:19:47.243Z,0.00
2018-03-10T03:20:47.485Z,0.00
2018-03-10T03:21:47.728Z,0.00
2018-03-10T03:22:47.986Z,0.00
2018-03-10T03:23:48.240Z,0.00
2018-03-10T03:24:48.467Z,0.00
2018-03-10T03:25:48.722Z,0.00
2018-03-10T03:26:48.960Z,0.00
2018-03-10T03:27:49.203Z,0.00
2018-03-10T03:28:49.451Z,0.00
2018-03-10T03:29:49.707Z,0.00
2018-03-10T03:30:49.952Z,0.00
2018-03-10T03:31:50.175Z,0.00
2018-03-10T03:32:50.439Z,0.00
2018-03-10T03:33:50.693Z,0.00
2018-03-10T03:34:50.922Z,0.00
2018-03-10T03:35:51.159Z,0.00
2018-03-10T03:36:51.415Z,0.00
2018-03-10T03:37:51.659Z,0.00
2018-03-10T03:38:51.907Z,0.00
2018-03-10T03:39:52.169Z,0.00
2018-03-10T03:40:52.392Z,0.00
2018-03-10T03:41:52.661Z,0.00
2018-03-10T03:42:52.919Z,0.00
2018-03-10T03:43:53.152Z,0.00
2018-03-10T03:44:53.412Z,0.00
2018-03-10T03:45:53.651Z,0.00
2018-03-10T03:46:53.893Z,0.00
2018-03-10T03:47:54.127Z,0.00
2018-03-10T03:48:54.410Z,0.00
2018-03-10T03:49:54.651Z,0.00
2018-03-10T03:50:54.909Z,0.00
2018-03-10T03:51:55.145Z,0.00
2018-03-10T03:52:55.383Z,0.00
2018-03-10T03:53:55.624Z,0.00
2018-03-10T03:54:55.894Z,0.00
2018-03-10T03:55:56.170Z,0.00
2018-03-10T03:56:56.398Z,0.00
2018-03-10T03:57:56.614Z,0.00
2018-03-10T03:58:56.859Z,0.00
2018-03-10T03:59:57.098Z,0.00
2018-03-10T04:00:57.326Z,0.00
2018-03-10T04:01:57.568Z,0.00
2018-03-10T04:02:57.794Z,0.00
2018-03-10T04:03:58.041Z,0.00
2018-03-10T04:04:58.283Z,0.00
2018-03-10T04:05:58.520Z,0.00
2018-03-10T04:06:58.758Z,0.00
2018-03-10T04:09:31.108Z,0.00
2018-03-10T04:10:31.354Z,0.00
2018-03-10T04:11:31.607Z,0.00
2018-03-10T04:12:31.857Z,0.00
2018-03-10T04:13:32.108Z,0.00
2018-03-10T04:14:32.418Z,0.00
2018-03-10T04:15:32.609Z,0.00
2018-03-10T04:16:32.860Z,0.00
2018-03-10T04:17:33.115Z,0.00
2018-03-10T04:18:33.368Z,0.00
2018-03-10T04:19:33.616Z,0.00
2018-03-10T04:20:33.868Z,0.00
2018-03-10T04:21:34.118Z,0.00
2018-03-10T04:22:34.362Z,0.00
2018-03-10T04:23:34.618Z,0.00
2018-03-10T04:24:34.866Z,0.00
2018-03-10T04:25:35.118Z,0.00
2018-03-10T04:26:35.368Z,0.00
2018-03-10T04:27:35.621Z,0.00
2018-03-10T04:28:35.871Z,0.00
2018-03-10T04:29:36.123Z,0.00
2018-03-10T04:30:36.373Z,0.00
2018-03-10T04:31:36.627Z,0.00
2018-03-10T04:32:36.877Z,0.00
2018-03-10T04:33:37.127Z,0.00
2018-03-10T04:34:37.378Z,0.00
2018-03-10T04:35:37.634Z,0.00
2018-03-10T04:36:37.884Z,0.00
2018-03-10T04:37:38.141Z,0.00
2018-03-10T04:38:38.392Z,0.00
2018-03-10T04:39:38.638Z,0.00
2018-03-10T04:40:38.890Z,0.00
2018-03-10T04:41:39.143Z,0.00
2018-03-10T04:42:39.398Z,0.00
2018-03-10T04:43:39.649Z,0.00
2018-03-10T04:44:39.899Z,0.00
2018-03-10T04:45:40.145Z,0.00
2018-03-10T04:46:40.397Z,0.00
2018-03-10T04:47:40.647Z,0.00
2018-03-10T04:48:40.900Z,0.00
2018-03-10T04:49:41.150Z,0.00
2018-03-10T04:50:41.400Z,0.00
2018-03-10T04:51:41.648Z,0.00
2018-03-10T04:52:41.902Z,0.00
2018-03-10T04:53:42.159Z,0.00
2018-03-10T04:54:42.408Z,0.00
2018-03-10T04:55:42.664Z,0.00
2018-03-10T04:56:42.909Z,0.00
2018-03-10T04:57:43.161Z,0.00
2018-03-10T04:58:43.419Z,0.00
2018-03-10T04:59:43.663Z,0.00
2018-03-10T05:00:43.913Z,0.00
2018-03-10T05:01:44.165Z,0.00
2018-03-10T05:02:44.420Z,0.00
2018-03-10T05:03:44.685Z,0.00
2018-03-10T05:04:44.927Z,0.00
2018-03-10T05:05:45.173Z,0.00
2018-03-10T05:06:45.431Z,0.00
2018-03-10T05:07:45.678Z,0.00
2018-03-10T05:08:45.928Z,0.00
2018-03-10T05:09:46.180Z,0.00
2018-03-10T05:10:46.433Z,0.00
2018-03-10T05:11:46.682Z,0.00
2018-03-10T05:12:46.928Z,0.00
2018-03-10T05:13:47.183Z,0.00
2018-03-10T05:14:47.434Z,0.00
2018-03-10T05:15:47.684Z,0.00
2018-03-10T05:16:47.935Z,0.00
2018-03-10T05:17:48.185Z,0.00
2018-03-10T05:18:48.440Z,0.00
2018-03-10T05:19:48.686Z,0.00
2018-03-10T05:20:48.936Z,0.00
2018-03-10T05:21:49.187Z,0.00
2018-03-10T05:22:49.436Z,0.00
2018-03-10T05:23:49.689Z,0.00
2018-03-10T05:24:49.948Z,0.00
2018-03-10T05:25:50.221Z,4.00
2018-03-10T05:26:50.445Z,4.00
2018-03-10T05:27:50.695Z,4.00
2018-03-10T05:28:50.948Z,4.00
2018-03-10T05:29:51.197Z,0.00
2018-03-10T05:30:51.453Z,4.00
2018-03-10T05:31:51.705Z,4.00
2018-03-10T05:32:51.965Z,4.00
2018-03-10T05:33:52.210Z,8.00
2018-03-10T05:34:52.461Z,4.00
2018-03-10T05:35:52.709Z,4.00
2018-03-10T05:36:52.962Z,8.00
2018-03-10T05:37:53.214Z,8.00
2018-03-10T05:38:53.463Z,12.00
2018-03-10T05:39:53.717Z,8.00
2018-03-10T05:40:53.970Z,8.00
2018-03-10T05:41:54.219Z,12.00
2018-03-10T05:42:54.472Z,12.00
2018-03-10T05:43:54.721Z,16.00
2018-03-10T05:44:54.975Z,16.00
2018-03-10T05:45:55.225Z,20.00
2018-03-10T05:46:55.463Z,24.00
2018-03-10T05:47:55.726Z,28.00
2018-03-10T05:48:55.974Z,28.00
2018-03-10T05:49:56.233Z,32.00
2018-03-10T05:50:56.483Z,36.00
2018-03-10T05:51:56.734Z,44.00
2018-03-10T05:52:56.982Z,52.00
2018-03-10T05:53:57.232Z,52.00
2018-03-10T05:54:57.482Z,60.00
2018-03-10T05:55:57.738Z,68.00
2018-03-10T05:56:57.985Z,80.00
2018-03-10T05:57:58.238Z,88.00
2018-03-10T05:58:58.490Z,100.00
2018-03-10T05:59:58.738Z,108.00
2018-03-10T06:00:58.982Z,124.00
2018-03-10T06:01:59.250Z,136.00
2018-03-10T06:02:59.503Z,144.00
2018-03-10T06:03:59.755Z,156.00
2018-03-10T06:05:00.012Z,164.00
2018-03-10T06:06:00.269Z,172.00
2018-03-10T06:07:00.517Z,188.00
2018-03-10T06:08:00.767Z,204.00
2018-03-10T06:09:01.022Z,224.00
2018-03-10T06:10:01.278Z,248.00
2018-03-10T06:11:01.523Z,264.00
2018-03-10T06:12:01.773Z,272.00
2018-03-10T06:13:02.026Z,284.00
2018-03-10T06:14:02.270Z,300.00
2018-03-10T06:15:02.523Z,312.00
2018-03-10T06:16:02.774Z,328.00
2018-03-10T06:17:03.026Z,340.00
2018-03-10T06:18:03.277Z,344.00
2018-03-10T06:19:03.527Z,356.00
2018-03-10T06:20:03.776Z,376.00
2018-03-10T06:21:04.028Z,392.00
2018-03-10T06:22:04.280Z,412.00
2018-03-10T06:23:04.535Z,428.00
2018-03-10T06:24:04.781Z,440.00
2018-03-10T06:25:05.033Z,428.00
2018-03-10T06:26:05.284Z,392.00
2018-03-10T06:27:05.540Z,368.00
2018-03-10T06:28:05.790Z,340.00
2018-03-10T06:29:06.041Z,328.00
2018-03-10T06:30:06.297Z,324.00
2018-03-10T06:31:06.544Z,312.00
2018-03-10T06:32:06.798Z,304.00
2018-03-10T06:33:07.048Z,344.00
2018-03-10T06:34:07.301Z,324.00
2018-03-10T06:35:07.553Z,356.00
2018-03-10T06:36:07.805Z,400.00
2018-03-10T06:37:08.059Z,436.00
2018-03-10T06:38:08.308Z,464.00
2018-03-10T06:39:08.559Z,472.00
2018-03-10T06:40:08.815Z,500.00
2018-03-10T06:41:09.070Z,516.00
2018-03-10T06:42:09.316Z,536.00
2018-03-10T06:43:09.572Z,548.00
2018-03-10T06:44:09.822Z,560.00
2018-03-10T06:45:10.076Z,584.00
2018-03-10T06:46:10.328Z,620.00
2018-03-10T06:47:10.584Z,644.00
2018-03-10T06:48:10.835Z,656.00
2018-03-10T06:49:11.080Z,664.00
2018-03-10T06:50:11.332Z,664.00
2018-03-10T06:51:11.586Z,672.00
2018-03-10T06:52:11.841Z,676.00
2018-03-10T06:53:12.139Z,728.00
2018-03-10T06:54:12.344Z,696.00
2018-03-10T06:55:12.595Z,696.00
2018-03-10T06:56:12.847Z,696.00
2018-03-10T06:57:13.096Z,680.00
2018-03-10T06:58:13.346Z,676.00
2018-03-10T06:59:13.600Z,692.00
2018-03-10T07:00:13.854Z,692.00
2018-03-10T07:01:14.107Z,712.00
2018-03-10T07:02:14.356Z,716.00
2018-03-10T07:03:14.609Z,724.00
2018-03-10T07:04:14.862Z,748.00
2018-03-10T07:05:15.110Z,772.00
2018-03-10T07:06:15.418Z,792.00
2018-03-10T07:07:15.619Z,824.00
2018-03-10T07:08:15.871Z,824.00
2018-03-10T07:09:16.118Z,804.00
2018-03-10T07:10:16.373Z,772.00
2018-03-10T07:11:16.627Z,768.00
2018-03-10T07:12:16.880Z,796.00
2018-03-10T07:13:17.128Z,832.00
2018-03-10T07:14:17.385Z,908.00
2018-03-10T07:15:17.638Z,980.00
2018-03-10T07:16:17.889Z,1072.00
2018-03-10T07:17:18.143Z,1160.00
2018-03-10T07:18:18.399Z,1248.00
2018-03-10T07:19:18.647Z,1296.00
2018-03-10T07:20:18.905Z,1320.00
2018-03-10T07:21:19.159Z,1312.00
2018-03-10T07:22:19.410Z,1320.00
2018-03-10T07:23:19.668Z,1328.00
2018-03-10T07:24:19.922Z,1312.00
2018-03-10T07:25:20.173Z,1336.00
2018-03-10T07:26:20.422Z,1412.00
2018-03-10T07:27:20.680Z,1552.00
2018-03-10T07:28:20.933Z,1704.00
2018-03-10T07:29:21.186Z,1868.00
2018-03-10T07:30:21.436Z,2016.00
2018-03-10T07:31:21.689Z,2136.00
2018-03-10T07:32:21.947Z,2220.00
2018-03-10T07:33:22.199Z,2324.00
2018-03-10T07:34:22.454Z,2412.00
2018-03-10T07:35:22.711Z,2480.00
2018-03-10T07:36:22.968Z,2544.00
2018-03-10T07:37:23.217Z,2588.00
2018-03-10T07:38:23.490Z,2676.00
2018-03-10T07:39:23.743Z,2828.00
2018-03-10T07:40:23.999Z,2916.00
2018-03-10T07:41:24.250Z,3004.00
2018-03-10T07:42:24.509Z,3024.00
2018-03-10T07:43:24.760Z,2968.00
2018-03-10T07:44:25.015Z,2884.00
2018-03-10T07:45:25.269Z,2768.00
2018-03-10T07:46:25.526Z,2868.00
2018-03-10T07:47:25.783Z,3180.00
2018-03-10T07:48:26.034Z,3408.00
2018-03-10T07:49:26.291Z,3456.00
2018-03-10T07:50:26.538Z,3472.00
2018-03-10T07:51:26.806Z,3404.00
2018-03-10T07:52:27.060Z,3292.00
2018-03-10T07:53:27.311Z,3140.00
2018-03-10T07:54:27.572Z,3012.00
2018-03-10T07:55:27.815Z,2884.00
2018-03-10T07:56:28.069Z,2836.00
2018-03-10T07:57:28.326Z,2836.00
2018-03-10T07:58:28.583Z,2876.00
2018-03-10T07:59:28.839Z,2892.00
2018-03-10T08:00:29.093Z,2916.00
2018-03-10T08:01:30.173Z,3016.00
2018-03-10T08:02:29.750Z,3176.00
2018-03-10T08:03:29.999Z,3396.00
2018-03-10T08:04:30.253Z,3628.00
2018-03-10T08:05:30.503Z,3984.00
2018-03-10T08:06:30.761Z,4272.00
2018-03-10T08:07:31.016Z,4572.00
2018-03-10T08:08:31.275Z,4688.00
2018-03-10T08:09:31.526Z,4692.00
2018-03-10T08:10:31.780Z,4732.00
2018-03-10T08:11:32.035Z,4864.00
2018-03-10T08:12:32.302Z,4660.00
2018-03-10T08:13:32.539Z,4432.00
2018-03-10T08:14:32.797Z,4256.00
2018-03-10T08:15:33.046Z,4136.00
2018-03-10T08:16:33.300Z,4092.00
2018-03-10T08:17:33.542Z,4064.00
2018-03-10T08:18:33.821Z,4068.00
2018-03-10T08:19:34.114Z,4052.00
2018-03-10T08:20:34.294Z,3996.00
2018-03-10T08:21:34.530Z,3852.00
2018-03-10T08:22:34.797Z,3788.00
2018-03-10T08:23:35.021Z,3896.00
2018-03-10T08:24:35.263Z,3968.00
2018-03-10T08:25:35.554Z,3884.00
2018-03-10T08:26:35.792Z,3776.00
2018-03-10T08:27:36.046Z,3780.00
2018-03-10T08:28:36.279Z,4192.00
2018-03-10T08:29:36.536Z,4224.00
2018-03-10T08:30:36.794Z,3908.00
2018-03-10T08:31:37.030Z,3852.00
2018-03-10T08:32:37.283Z,3892.00
2018-03-10T08:33:37.535Z,3940.00
2018-03-10T08:34:37.781Z,3964.00
2018-03-10T08:35:38.028Z,4056.00
2018-03-10T08:36:38.306Z,4264.00
2018-03-10T08:37:38.539Z,4572.00
2018-03-10T08:38:38.780Z,4440.00
2018-03-10T08:39:39.026Z,4560.00
2018-03-10T08:40:39.288Z,4568.00
2018-03-10T08:41:39.536Z,4516.00
2018-03-10T08:42:39.810Z,4492.00
2018-03-10T08:43:40.004Z,4432.00
2018-03-10T08:44:40.266Z,4332.00
2018-03-10T08:45:40.513Z,4224.00
2018-03-10T08:46:40.798Z,4204.00
2018-03-10T08:47:41.015Z,4212.00
2018-03-10T08:48:41.265Z,4252.00
2018-03-10T08:49:41.539Z,4256.00
2018-03-10T08:50:41.787Z,4208.00
2018-03-10T08:51:42.043Z,4172.00
2018-03-10T08:52:42.257Z,4168.00
2018-03-10T08:53:42.508Z,4180.00
2018-03-10T08:54:42.759Z,4224.00
2018-03-10T08:55:43.009Z,4264.00
2018-03-10T08:56:43.269Z,4332.00
2018-03-10T08:57:43.506Z,4436.00
2018-03-10T08:58:43.752Z,4560.00
2018-03-10T08:59:44.004Z,4600.00
2018-03-10T09:00:44.275Z,4264.00
2018-03-10T09:01:44.511Z,4256.00
2018-03-10T09:02:44.758Z,4136.00
2018-03-10T09:03:45.023Z,4448.00
2018-03-10T09:04:45.270Z,4036.00
2018-03-10T09:05:45.516Z,5020.00
2018-03-10T09:06:45.771Z,3888.00
2018-03-10T09:07:46.009Z,3644.00
2018-03-10T09:08:46.244Z,3580.00
2018-03-10T09:09:46.499Z,3708.00
2018-03-10T09:10:46.768Z,3888.00
2018-03-10T09:11:46.995Z,4528.00
2018-03-10T09:12:47.238Z,4720.00
2018-03-10T09:15:20.627Z,3704.00
2018-03-10T09:16:20.874Z,3452.00
2018-03-10T09:17:21.131Z,3288.00
2018-03-10T09:18:21.384Z,4172.00
2018-03-10T09:19:21.645Z,3760.00
2018-03-10T09:20:21.907Z,3828.00
2018-03-10T09:21:22.156Z,3600.00
2018-03-10T09:22:22.427Z,4116.00
2018-03-10T09:23:22.669Z,4176.00
2018-03-10T09:24:22.929Z,4204.00
2018-03-10T09:25:23.187Z,4204.00
2018-03-10T09:26:23.445Z,3692.00
2018-03-10T09:27:23.702Z,3148.00
2018-03-10T09:28:23.965Z,3432.00
2018-03-10T09:29:24.223Z,4156.00
2018-03-10T09:30:24.485Z,4376.00
2018-03-10T09:31:24.733Z,4168.00
2018-03-10T09:32:24.987Z,4208.00
2018-03-10T09:33:25.250Z,4280.00
2018-03-10T09:34:25.504Z,4196.00
2018-03-10T09:35:25.763Z,4220.00
2018-03-10T09:36:26.010Z,4424.00
2018-03-10T09:37:26.258Z,4392.00
2018-03-10T09:38:26.524Z,4504.00
2018-03-10T09:39:26.783Z,4568.00
2018-03-10T09:40:27.035Z,4644.00
2018-03-10T09:41:27.293Z,4676.00
2018-03-10T09:42:27.551Z,4760.00
2018-03-10T09:43:27.811Z,4884.00
2018-03-10T09:44:28.069Z,4928.00
2018-03-10T09:45:28.322Z,5096.00
2018-03-10T09:46:28.582Z,5136.00
2018-03-10T09:47:28.830Z,5300.00
2018-03-10T09:48:29.090Z,5476.00
2018-03-10T09:49:29.344Z,5696.00
2018-03-10T09:50:29.598Z,5884.00
2018-03-10T09:51:29.862Z,6120.00
2018-03-10T09:52:30.116Z,6440.00
2018-03-10T09:53:30.384Z,6692.00
2018-03-10T09:54:30.646Z,6744.00
2018-03-10T09:55:30.934Z,6432.00
2018-03-10T09:56:31.163Z,6724.00
2018-03-10T09:57:31.418Z,6252.00
2018-03-10T09:58:31.678Z,6572.00
2018-03-10T09:59:31.990Z,6900.00
2018-03-10T10:00:32.250Z,5924.00
2018-03-10T10:01:32.506Z,5296.00
2018-03-10T10:02:32.768Z,5132.00
2018-03-10T10:03:33.025Z,5116.00
2018-03-10T10:04:33.284Z,5156.00
2018-03-10T10:05:33.541Z,5272.00
2018-03-10T10:06:33.799Z,5356.00
2018-03-10T10:07:34.055Z,5292.00
2018-03-10T10:08:34.312Z,5332.00
2018-03-10T10:09:34.571Z,5236.00
2018-03-10T10:10:34.830Z,5108.00
2018-03-10T10:11:35.091Z,5644.00
2018-03-10T10:12:35.342Z,5448.00
2018-03-10T10:13:35.600Z,5472.00
2018-03-10T10:14:35.857Z,5420.00
2018-03-10T10:15:36.115Z,5276.00
2018-03-10T10:16:36.375Z,6884.00
2018-03-10T10:17:36.629Z,6764.00
2018-03-10T10:18:36.888Z,7488.00
2018-03-10T10:19:37.144Z,7520.00
2018-03-10T10:20:37.400Z,7564.00
2018-03-10T10:21:37.658Z,7688.00
2018-03-10T10:22:37.916Z,7744.00
2018-03-10T10:23:38.175Z,7680.00
2018-03-10T10:24:38.434Z,7508.00
2018-03-10T10:25:38.690Z,7172.00
2018-03-10T10:26:38.939Z,6644.00
2018-03-10T10:27:39.191Z,6076.00
2018-03-10T10:28:39.454Z,5904.00
2018-03-10T10:29:39.712Z,5760.00
2018-03-10T10:30:39.968Z,5632.00
2018-03-10T10:31:40.243Z,5156.00
2018-03-10T10:32:40.485Z,5592.00
2018-03-10T10:33:40.745Z,5580.00
2018-03-10T10:34:41.004Z,5656.00
2018-03-10T10:35:41.269Z,5600.00
2018-03-10T10:36:41.518Z,5660.00
2018-03-10T10:37:41.784Z,5780.00
2018-03-10T10:38:42.090Z,5860.00
2018-03-10T10:39:42.385Z,5864.00
2018-03-10T10:40:42.611Z,5928.00
2018-03-10T10:41:42.865Z,6012.00
2018-03-10T10:42:43.132Z,6032.00
2018-03-10T10:43:43.391Z,6072.00
2018-03-10T10:44:43.653Z,5840.00
2018-03-10T10:45:43.910Z,5372.00
2018-03-10T10:46:44.170Z,5800.00
2018-03-10T10:47:44.425Z,5832.00
2018-03-10T10:48:44.699Z,5760.00
2018-03-10T10:49:44.956Z,5632.00
2018-03-10T10:50:45.214Z,5620.00
2018-03-10T10:51:45.473Z,5580.00
2018-03-10T10:52:45.735Z,5612.00
2018-03-10T10:53:45.995Z,5636.00
2018-03-10T10:54:46.254Z,5624.00
2018-03-10T10:55:46.511Z,5512.00
2018-03-10T10:56:46.770Z,5616.00
2018-03-10T10:57:47.027Z,5464.00
2018-03-10T10:58:47.281Z,5704.00
2018-03-10T10:59:47.536Z,3960.00
2018-03-10T11:00:47.813Z,5488.00
2018-03-10T11:01:48.066Z,5152.00
2018-03-10T11:02:48.326Z,5540.00
2018-03-10T11:03:48.589Z,5696.00
2018-03-10T11:04:48.849Z,5756.00
2018-03-10T11:05:49.100Z,6264.00
2018-03-10T11:06:49.365Z,6040.00
2018-03-10T11:07:49.615Z,5700.00
2018-03-10T11:08:49.874Z,5680.00
2018-03-10T11:09:50.162Z,5640.00
2018-03-10T11:10:50.392Z,5648.00
2018-03-10T11:11:50.665Z,5600.00
2018-03-10T11:12:50.903Z,5588.00
2018-03-10T11:13:51.169Z,5484.00
2018-03-10T11:14:51.417Z,5684.00
2018-03-10T11:15:51.668Z,5584.00
2018-03-10T11:16:51.928Z,5712.00
2018-03-10T11:17:52.175Z,6024.00
2018-03-10T11:18:52.500Z,5916.00
2018-03-10T11:19:52.706Z,5660.00
2018-03-10T11:20:52.938Z,5572.00
2018-03-10T11:21:53.193Z,5420.00
2018-03-10T11:22:53.452Z,5828.00
2018-03-10T11:23:53.697Z,5844.00
2018-03-10T11:24:53.955Z,5912.00
2018-03-10T11:25:54.183Z,5708.00
2018-03-10T11:26:54.468Z,5728.00
2018-03-10T11:27:54.713Z,5628.00
2018-03-10T11:28:54.957Z,5532.00
2018-03-10T11:29:55.206Z,5456.00
2018-03-10T11:30:55.458Z,5504.00
2018-03-10T11:31:55.715Z,5216.00
2018-03-10T11:32:55.975Z,5844.00
2018-03-10T11:33:56.204Z,5640.00
2018-03-10T11:34:56.477Z,5216.00
2018-03-10T11:35:56.738Z,3896.00
2018-03-10T11:36:56.984Z,4460.00
2018-03-10T11:37:57.245Z,4436.00
2018-03-10T11:38:57.490Z,4200.00
2018-03-10T11:39:57.756Z,4840.00
2018-03-10T11:40:58.012Z,4276.00
2018-03-10T11:41:58.233Z,3928.00
2018-03-10T11:42:58.501Z,3444.00
2018-03-10T11:43:58.769Z,3460.00
2018-03-10T11:44:59.010Z,3908.00
2018-03-10T11:45:59.301Z,4356.00
2018-03-10T11:46:59.522Z,4512.00
2018-03-10T11:47:59.775Z,4992.00
2018-03-10T11:49:00.009Z,5436.00
2018-03-10T11:50:00.290Z,5252.00
2018-03-10T11:51:00.550Z,5712.00
2018-03-10T11:52:00.805Z,6008.00
2018-03-10T11:53:01.061Z,4548.00
2018-03-10T11:54:01.299Z,5236.00
2018-03-10T11:55:01.565Z,5380.00
2018-03-10T11:56:01.824Z,4768.00
2018-03-10T11:57:02.081Z,4900.00
2018-03-10T11:58:02.324Z,4796.00
2018-03-10T11:59:02.582Z,6084.00
2018-03-10T12:00:02.840Z,5448.00
2018-03-10T12:01:03.063Z,4720.00
2018-03-10T12:02:03.346Z,4504.00
2018-03-10T12:03:03.578Z,4836.00
2018-03-10T12:04:03.835Z,5108.00
2018-03-10T12:05:04.078Z,4916.00
2018-03-10T12:06:04.356Z,5876.00
2018-03-10T12:07:04.593Z,5760.00
2018-03-10T12:08:04.850Z,5144.00
2018-03-10T12:09:05.145Z,5004.00
2018-03-10T12:10:05.417Z,4808.00
2018-03-10T12:11:05.599Z,5032.00
2018-03-10T12:12:05.873Z,5516.00
2018-03-10T12:13:06.131Z,5812.00
2018-03-10T12:14:06.368Z,5480.00
2018-03-10T12:15:06.617Z,5668.00
2018-03-10T12:16:06.950Z,5740.00
2018-03-10T12:17:07.172Z,6040.00
2018-03-10T12:18:07.381Z,5812.00
2018-03-10T12:19:07.629Z,6268.00
2018-03-10T12:20:07.890Z,6448.00
2018-03-10T12:21:08.174Z,6052.00
2018-03-10T12:22:08.476Z,6560.00
2018-03-10T12:23:08.720Z,7048.00
2018-03-10T12:24:08.981Z,7024.00
2018-03-10T12:25:09.188Z,7104.00
2018-03-10T12:26:09.494Z,6928.00
2018-03-10T12:27:09.751Z,6752.00
2018-03-10T12:28:09.959Z,6856.00
2018-03-10T12:29:10.258Z,6316.00
2018-03-10T12:30:10.499Z,7728.00
2018-03-10T12:31:10.753Z,7736.00
2018-03-10T12:32:11.016Z,5832.00
2018-03-10T12:33:11.273Z,5708.00
2018-03-10T12:34:11.501Z,6340.00
2018-03-10T12:35:11.760Z,6440.00
2018-03-10T12:36:12.026Z,6356.00
2018-03-10T12:37:12.266Z,6860.00
2018-03-10T12:38:12.570Z,6592.00
2018-03-10T12:39:12.789Z,6060.00
2018-03-10T12:40:13.021Z,5980.00
2018-03-10T12:41:13.270Z,6108.00
2018-03-10T12:42:13.540Z,6148.00
2018-03-10T12:43:13.820Z,6440.00
2018-03-10T12:44:14.042Z,6368.00
2018-03-10T12:45:14.317Z,6276.00
2018-03-10T12:46:14.605Z,6360.00
2018-03-10T12:47:14.846Z,6144.00